sensor_id;sensor_type;location;lat;lon;timestamp;P1;durP1;ratioP1;P2;durP2;ratioP2
40286;SDS011;25998;46.604;13.610;2023-05-19T00:02:14;4.88;;;3.03;;
40286;SDS011;25998;46.604;13.610;2023-05-19T00:05:27;5.35;;;3.28;;
40286;SDS011;25998;46.604;13.610;2023-05-19T00:08:39;5.32;;;3.60;;
40286;SDS011;25998;46.604;13.610;2023-05-19T00:11:50;7.28;;;3.40;;
40286;SDS011;25998;46.604;13.610;2023-05-19T00:15:01;5.40;;;3.40;;
40286;SDS011;25998;46.604;13.610;2023-05-19T00:18:13;5.57;;;3.72;;
40286;SDS011;25998;46.604;13.610;2023-05-19T00:21:25;7.97;;;3.65;;
40286;SDS011;25998;46.604;13.610;2023-05-19T00:24:37;3.53;;;3.00;;
40286;SDS011;25998;46.604;13.610;2023-05-19T00:27:48;7.10;;;3.83;;
40286;SDS011;25998;46.604;13.610;2023-05-19T00:30:59;4.70;;;3.90;;
40286;SDS011;25998;46.604;13.610;2023-05-19T00:34:11;6.03;;;3.58;;
40286;SDS011;25998;46.604;13.610;2023-05-19T00:37:21;4.63;;;3.63;;
40286;SDS011;25998;46.604;13.610;2023-05-19T00:40:33;3.85;;;3.22;;
40286;SDS011;25998;46.604;13.610;2023-05-19T00:43:45;6.00;;;3.58;;
40286;SDS011;25998;46.604;13.610;2023-05-19T00:46:56;4.47;;;3.67;;
40286;SDS011;25998;46.604;13.610;2023-05-19T00:50:07;6.30;;;3.97;;
40286;SDS011;25998;46.604;13.610;2023-05-19T00:53:18;4.82;;;4.13;;
40286;SDS011;25998;46.604;13.610;2023-05-19T00:56:30;5.60;;;4.45;;
40286;SDS011;25998;46.604;13.610;2023-05-19T00:59:41;11.65;;;6.45;;
40286;SDS011;25998;46.604;13.610;2023-05-19T01:02:52;7.07;;;4.97;;
40286;SDS011;25998;46.604;13.610;2023-05-19T01:06:05;5.70;;;5.00;;
40286;SDS011;25998;46.604;13.610;2023-05-19T01:09:16;6.70;;;4.95;;
40286;SDS011;25998;46.604;13.610;2023-05-19T01:12:27;8.35;;;6.22;;
40286;SDS011;25998;46.604;13.610;2023-05-19T01:15:45;7.55;;;6.30;;
40286;SDS011;25998;46.604;13.610;2023-05-19T01:27:08;8.20;;;5.60;;
40286;SDS011;25998;46.604;13.610;2023-05-19T01:30:36;8.85;;;6.00;;
40286;SDS011;25998;46.604;13.610;2023-05-19T01:33:51;7.10;;;5.60;;
40286;SDS011;25998;46.604;13.610;2023-05-19T01:37:03;7.03;;;5.75;;
40286;SDS011;25998;46.604;13.610;2023-05-19T01:40:14;8.15;;;5.70;;
40286;SDS011;25998;46.604;13.610;2023-05-19T01:43:25;8.40;;;6.40;;
40286;SDS011;25998;46.604;13.610;2023-05-19T01:46:37;7.72;;;5.93;;
40286;SDS011;25998;46.604;13.610;2023-05-19T01:49:48;7.63;;;6.25;;
40286;SDS011;25998;46.604;13.610;2023-05-19T01:52:59;8.43;;;6.57;;
40286;SDS011;25998;46.604;13.610;2023-05-19T01:56:11;8.98;;;6.47;;
40286;SDS011;25998;46.604;13.610;2023-05-19T02:06:36;9.43;;;6.63;;
40286;SDS011;25998;46.604;13.610;2023-05-19T02:09:52;11.07;;;7.03;;
40286;SDS011;25998;46.604;13.610;2023-05-19T02:13:14;10.13;;;6.55;;
40286;SDS011;25998;46.604;13.610;2023-05-19T02:16:30;10.82;;;6.55;;
40286;SDS011;25998;46.604;13.610;2023-05-19T02:19:42;10.23;;;7.13;;
40286;SDS011;25998;46.604;13.610;2023-05-19T02:22:53;6.95;;;5.93;;
40286;SDS011;25998;46.604;13.610;2023-05-19T02:26:04;8.00;;;6.60;;
40286;SDS011;25998;46.604;13.610;2023-05-19T02:29:18;10.50;;;6.68;;
40286;SDS011;25998;46.604;13.610;2023-05-19T02:32:30;8.38;;;7.03;;
40286;SDS011;25998;46.604;13.610;2023-05-19T02:35:41;8.88;;;6.95;;
40286;SDS011;25998;46.604;13.610;2023-05-19T02:38:52;7.75;;;6.95;;
40286;SDS011;25998;46.604;13.610;2023-05-19T02:42:03;8.13;;;6.35;;
40286;SDS011;25998;46.604;13.610;2023-05-19T02:45:14;7.75;;;6.53;;
40286;SDS011;25998;46.604;13.610;2023-05-19T02:48:25;9.65;;;7.05;;
40286;SDS011;25998;46.604;13.610;2023-05-19T02:51:36;10.27;;;6.80;;
40286;SDS011;25998;46.604;13.610;2023-05-19T02:54:47;10.25;;;8.32;;
40286;SDS011;25998;46.604;13.610;2023-05-19T02:57:58;10.23;;;7.90;;
40286;SDS011;25998;46.604;13.610;2023-05-19T03:01:09;10.48;;;8.30;;
40286;SDS011;25998;46.604;13.610;2023-05-19T03:04:20;11.32;;;7.93;;
40286;SDS011;25998;46.604;13.610;2023-05-19T03:07:31;10.05;;;7.95;;
40286;SDS011;25998;46.604;13.610;2023-05-19T03:10:42;10.57;;;7.30;;
40286;SDS011;25998;46.604;13.610;2023-05-19T03:13:55;9.98;;;6.78;;
40286;SDS011;25998;46.604;13.610;2023-05-19T03:17:06;9.90;;;7.47;;
40286;SDS011;25998;46.604;13.610;2023-05-19T03:20:17;9.30;;;6.75;;
40286;SDS011;25998;46.604;13.610;2023-05-19T03:23:28;12.07;;;8.85;;
40286;SDS011;25998;46.604;13.610;2023-05-19T03:26:39;14.63;;;8.65;;
40286;SDS011;25998;46.604;13.610;2023-05-19T03:29:51;9.88;;;8.88;;
40286;SDS011;25998;46.604;13.610;2023-05-19T03:33:02;10.80;;;8.43;;
40286;SDS011;25998;46.604;13.610;2023-05-19T03:36:14;12.95;;;9.70;;
40286;SDS011;25998;46.604;13.610;2023-05-19T03:39:25;11.70;;;8.90;;
40286;SDS011;25998;46.604;13.610;2023-05-19T03:42:35;11.00;;;9.20;;
40286;SDS011;25998;46.604;13.610;2023-05-19T03:45:49;13.00;;;8.48;;
40286;SDS011;25998;46.604;13.610;2023-05-19T03:49:00;12.00;;;8.20;;
40286;SDS011;25998;46.604;13.610;2023-05-19T03:52:11;10.35;;;9.13;;
40286;SDS011;25998;46.604;13.610;2023-05-19T03:55:22;11.57;;;9.68;;
40286;SDS011;25998;46.604;13.610;2023-05-19T03:58:33;12.32;;;9.55;;
40286;SDS011;25998;46.604;13.610;2023-05-19T04:01:45;10.85;;;9.48;;
40286;SDS011;25998;46.604;13.610;2023-05-19T04:04:57;13.48;;;9.00;;
40286;SDS011;25998;46.604;13.610;2023-05-19T04:08:08;10.02;;;8.18;;
40286;SDS011;25998;46.604;13.610;2023-05-19T04:11:19;12.55;;;9.02;;
40286;SDS011;25998;46.604;13.610;2023-05-19T04:14:30;12.90;;;9.40;;
40286;SDS011;25998;46.604;13.610;2023-05-19T04:17:41;12.65;;;9.77;;
40286;SDS011;25998;46.604;13.610;2023-05-19T04:20:52;11.80;;;9.07;;
40286;SDS011;25998;46.604;13.610;2023-05-19T04:24:03;10.75;;;8.55;;
40286;SDS011;25998;46.604;13.610;2023-05-19T04:27:15;13.88;;;9.07;;
40286;SDS011;25998;46.604;13.610;2023-05-19T04:30:26;12.30;;;9.20;;
40286;SDS011;25998;46.604;13.610;2023-05-19T04:33:38;11.30;;;9.23;;
40286;SDS011;25998;46.604;13.610;2023-05-19T04:36:49;10.77;;;8.73;;
40286;SDS011;25998;46.604;13.610;2023-05-19T04:40:00;11.57;;;8.95;;
40286;SDS011;25998;46.604;13.610;2023-05-19T04:43:11;11.50;;;9.43;;
40286;SDS011;25998;46.604;13.610;2023-05-19T04:46:22;10.52;;;9.27;;
40286;SDS011;25998;46.604;13.610;2023-05-19T04:49:34;12.90;;;9.48;;
40286;SDS011;25998;46.604;13.610;2023-05-19T04:52:48;12.35;;;9.95;;
40286;SDS011;25998;46.604;13.610;2023-05-19T04:55:58;13.32;;;8.90;;
40286;SDS011;25998;46.604;13.610;2023-05-19T04:59:10;13.45;;;9.68;;
40286;SDS011;25998;46.604;13.610;2023-05-19T05:02:21;15.15;;;8.70;;
40286;SDS011;25998;46.604;13.610;2023-05-19T05:05:32;10.48;;;8.52;;
40286;SDS011;25998;46.604;13.610;2023-05-19T05:08:43;15.63;;;8.88;;
40286;SDS011;25998;46.604;13.610;2023-05-19T05:11:54;12.25;;;9.02;;
40286;SDS011;25998;46.604;13.610;2023-05-19T05:15:05;10.93;;;8.68;;
40286;SDS011;25998;46.604;13.610;2023-05-19T05:18:17;11.90;;;8.00;;
40286;SDS011;25998;46.604;13.610;2023-05-19T05:21:28;11.70;;;8.80;;
40286;SDS011;25998;46.604;13.610;2023-05-19T05:24:41;9.35;;;7.65;;
40286;SDS011;25998;46.604;13.610;2023-05-19T05:27:52;10.63;;;8.18;;
40286;SDS011;25998;46.604;13.610;2023-05-19T05:31:03;10.77;;;7.90;;
40286;SDS011;25998;46.604;13.610;2023-05-19T05:34:14;9.00;;;7.38;;
40286;SDS011;25998;46.604;13.610;2023-05-19T05:37:25;9.10;;;7.55;;
40286;SDS011;25998;46.604;13.610;2023-05-19T05:40:36;9.75;;;7.68;;
40286;SDS011;25998;46.604;13.610;2023-05-19T05:43:46;11.60;;;8.15;;
40286;SDS011;25998;46.604;13.610;2023-05-19T05:46:57;9.70;;;7.20;;
40286;SDS011;25998;46.604;13.610;2023-05-19T05:50:08;7.88;;;7.05;;
40286;SDS011;25998;46.604;13.610;2023-05-19T05:53:20;10.25;;;7.43;;
40286;SDS011;25998;46.604;13.610;2023-05-19T05:56:33;10.82;;;6.93;;
40286;SDS011;25998;46.604;13.610;2023-05-19T05:59:46;8.02;;;7.22;;
40286;SDS011;25998;46.604;13.610;2023-05-19T06:02:57;9.27;;;6.70;;
40286;SDS011;25998;46.604;13.610;2023-05-19T06:06:09;8.52;;;7.00;;
40286;SDS011;25998;46.604;13.610;2023-05-19T06:09:20;10.10;;;6.85;;
40286;SDS011;25998;46.604;13.610;2023-05-19T06:12:31;8.55;;;7.35;;
40286;SDS011;25998;46.604;13.610;2023-05-19T06:15:43;8.48;;;7.15;;
40286;SDS011;25998;46.604;13.610;2023-05-19T06:18:54;9.73;;;7.57;;
40286;SDS011;25998;46.604;13.610;2023-05-19T06:22:05;11.32;;;7.75;;
40286;SDS011;25998;46.604;13.610;2023-05-19T06:25:15;8.80;;;6.68;;
40286;SDS011;25998;46.604;13.610;2023-05-19T06:28:26;8.90;;;6.30;;
40286;SDS011;25998;46.604;13.610;2023-05-19T06:31:37;7.25;;;6.55;;
40286;SDS011;25998;46.604;13.610;2023-05-19T06:34:48;8.20;;;6.40;;
40286;SDS011;25998;46.604;13.610;2023-05-19T06:38:03;8.32;;;6.43;;
40286;SDS011;25998;46.604;13.610;2023-05-19T06:41:14;7.80;;;6.82;;
40286;SDS011;25998;46.604;13.610;2023-05-19T06:44:28;8.63;;;7.18;;
40286;SDS011;25998;46.604;13.610;2023-05-19T06:47:39;8.15;;;6.63;;
40286;SDS011;25998;46.604;13.610;2023-05-19T06:50:51;8.85;;;6.85;;
40286;SDS011;25998;46.604;13.610;2023-05-19T06:54:02;8.52;;;6.70;;
40286;SDS011;25998;46.604;13.610;2023-05-19T06:57:13;7.40;;;6.60;;
40286;SDS011;25998;46.604;13.610;2023-05-19T07:00:23;9.13;;;6.88;;
40286;SDS011;25998;46.604;13.610;2023-05-19T07:03:35;8.25;;;7.20;;
40286;SDS011;25998;46.604;13.610;2023-05-19T07:06:46;8.63;;;6.32;;
40286;SDS011;25998;46.604;13.610;2023-05-19T07:09:59;9.00;;;7.03;;
40286;SDS011;25998;46.604;13.610;2023-05-19T07:13:10;8.63;;;6.25;;
40286;SDS011;25998;46.604;13.610;2023-05-19T07:16:21;10.43;;;7.10;;
40286;SDS011;25998;46.604;13.610;2023-05-19T07:19:31;9.00;;;7.63;;
40286;SDS011;25998;46.604;13.610;2023-05-19T07:22:42;7.47;;;6.70;;
40286;SDS011;25998;46.604;13.610;2023-05-19T07:25:54;9.13;;;6.85;;
40286;SDS011;25998;46.604;13.610;2023-05-19T07:29:05;6.88;;;6.18;;
40286;SDS011;25998;46.604;13.610;2023-05-19T07:32:16;7.95;;;6.38;;
40286;SDS011;25998;46.604;13.610;2023-05-19T07:35:27;9.88;;;6.53;;
40286;SDS011;25998;46.604;13.610;2023-05-19T07:38:38;9.63;;;6.22;;
40286;SDS011;25998;46.604;13.610;2023-05-19T07:41:49;9.18;;;6.40;;
40286;SDS011;25998;46.604;13.610;2023-05-19T07:45:03;6.32;;;5.45;;
40286;SDS011;25998;46.604;13.610;2023-05-19T07:48:15;8.32;;;5.50;;
40286;SDS011;25998;46.604;13.610;2023-05-19T07:51:27;8.10;;;6.28;;
40286;SDS011;25998;46.604;13.610;2023-05-19T07:54:38;8.48;;;6.38;;
40286;SDS011;25998;46.604;13.610;2023-05-19T07:57:49;7.50;;;5.90;;
40286;SDS011;25998;46.604;13.610;2023-05-19T08:01:00;8.45;;;6.35;;
40286;SDS011;25998;46.604;13.610;2023-05-19T08:04:11;6.82;;;6.07;;
40286;SDS011;25998;46.604;13.610;2023-05-19T08:07:22;9.40;;;5.68;;
40286;SDS011;25998;46.604;13.610;2023-05-19T08:10:33;7.25;;;5.13;;
40286;SDS011;25998;46.604;13.610;2023-05-19T08:13:44;7.75;;;6.00;;
40286;SDS011;25998;46.604;13.610;2023-05-19T08:16:57;7.95;;;6.18;;
40286;SDS011;25998;46.604;13.610;2023-05-19T08:20:08;6.95;;;5.72;;
40286;SDS011;25998;46.604;13.610;2023-05-19T08:23:21;7.72;;;5.90;;
40286;SDS011;25998;46.604;13.610;2023-05-19T08:26:32;10.48;;;6.15;;
40286;SDS011;25998;46.604;13.610;2023-05-19T08:29:43;6.55;;;5.80;;
40286;SDS011;25998;46.604;13.610;2023-05-19T08:32:54;7.40;;;5.70;;
40286;SDS011;25998;46.604;13.610;2023-05-19T08:36:05;7.43;;;5.53;;
40286;SDS011;25998;46.604;13.610;2023-05-19T08:39:16;8.82;;;6.45;;
40286;SDS011;25998;46.604;13.610;2023-05-19T08:42:28;8.10;;;6.07;;
40286;SDS011;25998;46.604;13.610;2023-05-19T08:45:43;9.15;;;5.85;;
40286;SDS011;25998;46.604;13.610;2023-05-19T08:48:57;6.95;;;5.55;;
40286;SDS011;25998;46.604;13.610;2023-05-19T08:59:11;9.68;;;7.93;;
40286;SDS011;25998;46.604;13.610;2023-05-19T09:02:24;7.55;;;6.25;;
40286;SDS011;25998;46.604;13.610;2023-05-19T09:05:36;7.38;;;6.00;;
40286;SDS011;25998;46.604;13.610;2023-05-19T09:08:48;6.45;;;5.40;;
40286;SDS011;25998;46.604;13.610;2023-05-19T09:11:59;8.00;;;5.35;;
40286;SDS011;25998;46.604;13.610;2023-05-19T09:15:10;9.43;;;5.03;;
40286;SDS011;25998;46.604;13.610;2023-05-19T09:18:23;6.70;;;5.32;;
40286;SDS011;25998;46.604;13.610;2023-05-19T09:21:35;5.68;;;4.82;;
40286;SDS011;25998;46.604;13.610;2023-05-19T09:24:46;9.73;;;6.80;;
40286;SDS011;25998;46.604;13.610;2023-05-19T09:27:57;5.25;;;4.35;;
40286;SDS011;25998;46.604;13.610;2023-05-19T09:31:08;5.30;;;4.63;;
40286;SDS011;25998;46.604;13.610;2023-05-19T09:34:20;6.07;;;4.38;;
40286;SDS011;25998;46.604;13.610;2023-05-19T09:37:33;6.25;;;4.22;;
40286;SDS011;25998;46.604;13.610;2023-05-19T09:40:45;6.20;;;3.70;;
40286;SDS011;25998;46.604;13.610;2023-05-19T09:43:58;5.28;;;4.20;;
40286;SDS011;25998;46.604;13.610;2023-05-19T09:47:09;5.53;;;4.35;;
40286;SDS011;25998;46.604;13.610;2023-05-19T09:50:20;5.07;;;3.67;;
40286;SDS011;25998;46.604;13.610;2023-05-19T09:53:32;5.53;;;4.10;;
40286;SDS011;25998;46.604;13.610;2023-05-19T09:56:44;6.18;;;4.07;;
40286;SDS011;25998;46.604;13.610;2023-05-19T09:59:54;5.07;;;4.10;;
40286;SDS011;25998;46.604;13.610;2023-05-19T10:03:07;6.63;;;4.30;;
40286;SDS011;25998;46.604;13.610;2023-05-19T10:06:19;4.90;;;4.32;;
40286;SDS011;25998;46.604;13.610;2023-05-19T10:13:49;6.43;;;5.00;;
40286;SDS011;25998;46.604;13.610;2023-05-19T10:17:00;6.55;;;5.38;;
40286;SDS011;25998;46.604;13.610;2023-05-19T10:20:12;6.85;;;5.38;;
40286;SDS011;25998;46.604;13.610;2023-05-19T10:23:24;7.00;;;5.18;;
40286;SDS011;25998;46.604;13.610;2023-05-19T10:26:35;7.32;;;4.55;;
40286;SDS011;25998;46.604;13.610;2023-05-19T10:29:48;7.30;;;5.70;;
40286;SDS011;25998;46.604;13.610;2023-05-19T10:33:00;6.82;;;5.15;;
40286;SDS011;25998;46.604;13.610;2023-05-19T10:39:45;8.25;;;4.88;;
40286;SDS011;25998;46.604;13.610;2023-05-19T10:46:54;6.13;;;5.00;;
40286;SDS011;25998;46.604;13.610;2023-05-19T10:50:06;6.07;;;5.28;;
40286;SDS011;25998;46.604;13.610;2023-05-19T10:53:17;7.72;;;5.20;;
40286;SDS011;25998;46.604;13.610;2023-05-19T10:56:31;8.23;;;5.47;;
40286;SDS011;25998;46.604;13.610;2023-05-19T10:59:45;6.72;;;5.60;;
40286;SDS011;25998;46.604;13.610;2023-05-19T11:03:12;7.22;;;5.57;;
40286;SDS011;25998;46.604;13.610;2023-05-19T11:06:26;7.45;;;5.55;;
40286;SDS011;25998;46.604;13.610;2023-05-19T11:09:50;7.03;;;4.72;;
40286;SDS011;25998;46.604;13.610;2023-05-19T11:13:01;6.20;;;5.60;;
40286;SDS011;25998;46.604;13.610;2023-05-19T11:16:16;6.15;;;5.07;;
40286;SDS011;25998;46.604;13.610;2023-05-19T11:19:29;8.15;;;5.18;;
40286;SDS011;25998;46.604;13.610;2023-05-19T11:22:41;8.38;;;6.35;;
40286;SDS011;25998;46.604;13.610;2023-05-19T11:26:09;5.90;;;4.53;;
40286;SDS011;25998;46.604;13.610;2023-05-19T11:29:22;6.22;;;4.70;;
40286;SDS011;25998;46.604;13.610;2023-05-19T11:32:33;6.93;;;4.72;;
40286;SDS011;25998;46.604;13.610;2023-05-19T11:35:48;5.47;;;4.32;;
40286;SDS011;25998;46.604;13.610;2023-05-19T11:39:00;6.80;;;4.50;;
40286;SDS011;25998;46.604;13.610;2023-05-19T11:42:12;6.32;;;5.10;;
40286;SDS011;25998;46.604;13.610;2023-05-19T11:45:26;5.80;;;4.45;;
40286;SDS011;25998;46.604;13.610;2023-05-19T11:48:40;5.93;;;4.38;;
40286;SDS011;25998;46.604;13.610;2023-05-19T11:51:51;5.40;;;4.65;;
40286;SDS011;25998;46.604;13.610;2023-05-19T11:55:04;5.70;;;4.68;;
40286;SDS011;25998;46.604;13.610;2023-05-19T11:58:15;6.15;;;4.88;;
40286;SDS011;25998;46.604;13.610;2023-05-19T12:01:26;6.47;;;4.78;;
40286;SDS011;25998;46.604;13.610;2023-05-19T12:04:37;4.93;;;4.18;;
40286;SDS011;25998;46.604;13.610;2023-05-19T12:07:48;5.93;;;4.22;;
40286;SDS011;25998;46.604;13.610;2023-05-19T12:11:00;5.47;;;4.28;;
40286;SDS011;25998;46.604;13.610;2023-05-19T12:14:11;6.10;;;4.80;;
40286;SDS011;25998;46.604;13.610;2023-05-19T12:17:22;7.35;;;4.60;;
40286;SDS011;25998;46.604;13.610;2023-05-19T12:20:33;5.60;;;4.55;;
40286;SDS011;25998;46.604;13.610;2023-05-19T12:23:44;6.35;;;4.82;;
40286;SDS011;25998;46.604;13.610;2023-05-19T12:30:35;6.55;;;4.68;;
40286;SDS011;25998;46.604;13.610;2023-05-19T12:33:49;9.32;;;5.80;;
40286;SDS011;25998;46.604;13.610;2023-05-19T12:37:01;6.15;;;4.68;;
40286;SDS011;25998;46.604;13.610;2023-05-19T12:40:14;6.10;;;4.40;;
40286;SDS011;25998;46.604;13.610;2023-05-19T12:43:25;7.10;;;4.72;;
40286;SDS011;25998;46.604;13.610;2023-05-19T12:46:38;6.25;;;4.18;;
40286;SDS011;25998;46.604;13.610;2023-05-19T12:49:53;6.05;;;3.83;;
40286;SDS011;25998;46.604;13.610;2023-05-19T12:53:09;6.22;;;4.03;;
40286;SDS011;25998;46.604;13.610;2023-05-19T12:56:23;5.82;;;3.92;;
40286;SDS011;25998;46.604;13.610;2023-05-19T12:59:36;6.45;;;3.85;;
40286;SDS011;25998;46.604;13.610;2023-05-19T13:02:59;5.25;;;3.67;;
40286;SDS011;25998;46.604;13.610;2023-05-19T13:06:17;6.18;;;4.32;;
40286;SDS011;25998;46.604;13.610;2023-05-19T13:09:28;7.25;;;3.70;;
40286;SDS011;25998;46.604;13.610;2023-05-19T13:12:43;4.20;;;3.55;;
40286;SDS011;25998;46.604;13.610;2023-05-19T13:15:54;6.15;;;3.78;;
40286;SDS011;25998;46.604;13.610;2023-05-19T13:19:05;6.68;;;4.07;;
40286;SDS011;25998;46.604;13.610;2023-05-19T13:22:16;4.50;;;3.08;;
40286;SDS011;25998;46.604;13.610;2023-05-19T13:25:27;4.57;;;3.22;;
40286;SDS011;25998;46.604;13.610;2023-05-19T13:28:38;4.47;;;3.13;;
40286;SDS011;25998;46.604;13.610;2023-05-19T13:31:49;3.95;;;2.70;;
40286;SDS011;25998;46.604;13.610;2023-05-19T13:35:00;5.60;;;4.70;;
40286;SDS011;25998;46.604;13.610;2023-05-19T13:38:11;5.38;;;3.50;;
40286;SDS011;25998;46.604;13.610;2023-05-19T13:41:24;4.18;;;2.97;;
40286;SDS011;25998;46.604;13.610;2023-05-19T13:44:35;5.00;;;3.40;;
40286;SDS011;25998;46.604;13.610;2023-05-19T13:47:46;5.90;;;3.58;;
40286;SDS011;25998;46.604;13.610;2023-05-19T13:50:57;4.35;;;3.28;;
40286;SDS011;25998;46.604;13.610;2023-05-19T13:54:08;4.53;;;3.38;;
40286;SDS011;25998;46.604;13.610;2023-05-19T13:57:22;3.80;;;3.05;;
40286;SDS011;25998;46.604;13.610;2023-05-19T14:00:33;3.42;;;2.90;;
40286;SDS011;25998;46.604;13.610;2023-05-19T14:03:44;3.45;;;2.60;;
40286;SDS011;25998;46.604;13.610;2023-05-19T14:06:55;3.15;;;2.50;;
40286;SDS011;25998;46.604;13.610;2023-05-19T14:10:06;4.07;;;2.67;;
40286;SDS011;25998;46.604;13.610;2023-05-19T14:13:17;4.13;;;2.65;;
40286;SDS011;25998;46.604;13.610;2023-05-19T14:16:28;4.38;;;2.75;;
40286;SDS011;25998;46.604;13.610;2023-05-19T14:19:39;3.33;;;2.60;;
40286;SDS011;25998;46.604;13.610;2023-05-19T14:22:50;4.25;;;2.75;;
40286;SDS011;25998;46.604;13.610;2023-05-19T14:26:01;3.95;;;2.80;;
40286;SDS011;25998;46.604;13.610;2023-05-19T14:29:12;4.70;;;2.90;;
40286;SDS011;25998;46.604;13.610;2023-05-19T14:32:23;3.42;;;2.60;;
40286;SDS011;25998;46.604;13.610;2023-05-19T14:35:33;4.85;;;2.83;;
40286;SDS011;25998;46.604;13.610;2023-05-19T14:38:44;4.75;;;3.03;;
40286;SDS011;25998;46.604;13.610;2023-05-19T14:41:56;4.90;;;2.92;;
40286;SDS011;25998;46.604;13.610;2023-05-19T14:45:08;4.45;;;3.17;;
40286;SDS011;25998;46.604;13.610;2023-05-19T14:48:20;3.20;;;2.53;;
40286;SDS011;25998;46.604;13.610;2023-05-19T14:51:33;4.20;;;2.50;;
40286;SDS011;25998;46.604;13.610;2023-05-19T14:54:45;3.95;;;3.13;;
40286;SDS011;25998;46.604;13.610;2023-05-19T14:57:56;4.10;;;3.63;;
40286;SDS011;25998;46.604;13.610;2023-05-19T15:01:06;5.75;;;3.20;;
40286;SDS011;25998;46.604;13.610;2023-05-19T15:04:17;4.28;;;2.92;;
40286;SDS011;25998;46.604;13.610;2023-05-19T15:07:28;5.03;;;3.28;;
40286;SDS011;25998;46.604;13.610;2023-05-19T15:10:39;4.82;;;3.58;;
40286;SDS011;25998;46.604;13.610;2023-05-19T15:13:50;4.03;;;3.22;;
40286;SDS011;25998;46.604;13.610;2023-05-19T15:17:01;3.75;;;3.22;;
40286;SDS011;25998;46.604;13.610;2023-05-19T15:20:12;5.38;;;3.10;;
40286;SDS011;25998;46.604;13.610;2023-05-19T15:23:23;6.05;;;3.40;;
40286;SDS011;25998;46.604;13.610;2023-05-19T15:26:33;5.00;;;3.25;;
40286;SDS011;25998;46.604;13.610;2023-05-19T15:29:44;4.30;;;3.25;;
40286;SDS011;25998;46.604;13.610;2023-05-19T15:32:55;4.63;;;3.00;;
40286;SDS011;25998;46.604;13.610;2023-05-19T15:36:06;4.15;;;2.85;;
40286;SDS011;25998;46.604;13.610;2023-05-19T15:39:17;4.30;;;3.10;;
40286;SDS011;25998;46.604;13.610;2023-05-19T15:42:27;5.38;;;3.30;;
40286;SDS011;25998;46.604;13.610;2023-05-19T15:45:38;3.75;;;2.92;;
40286;SDS011;25998;46.604;13.610;2023-05-19T15:48:49;3.65;;;2.88;;
40286;SDS011;25998;46.604;13.610;2023-05-19T15:52:00;4.30;;;3.60;;
40286;SDS011;25998;46.604;13.610;2023-05-19T15:55:13;4.97;;;4.00;;
40286;SDS011;25998;46.604;13.610;2023-05-19T15:58:23;6.20;;;3.63;;
40286;SDS011;25998;46.604;13.610;2023-05-19T16:01:34;5.47;;;3.08;;
40286;SDS011;25998;46.604;13.610;2023-05-19T16:04:45;5.00;;;3.45;;
40286;SDS011;25998;46.604;13.610;2023-05-19T16:07:56;4.13;;;3.00;;
40286;SDS011;25998;46.604;13.610;2023-05-19T16:11:07;5.63;;;3.33;;
40286;SDS011;25998;46.604;13.610;2023-05-19T16:14:18;3.55;;;3.03;;
40286;SDS011;25998;46.604;13.610;2023-05-19T16:17:29;4.80;;;3.30;;
40286;SDS011;25998;46.604;13.610;2023-05-19T16:20:40;4.25;;;3.35;;
40286;SDS011;25998;46.604;13.610;2023-05-19T16:23:51;6.03;;;3.53;;
40286;SDS011;25998;46.604;13.610;2023-05-19T16:27:02;3.63;;;3.20;;
40286;SDS011;25998;46.604;13.610;2023-05-19T16:30:14;3.92;;;3.17;;
40286;SDS011;25998;46.604;13.610;2023-05-19T16:33:25;4.75;;;3.25;;
40286;SDS011;25998;46.604;13.610;2023-05-19T16:36:37;4.72;;;3.67;;
40286;SDS011;25998;46.604;13.610;2023-05-19T16:39:48;5.22;;;3.45;;
40286;SDS011;25998;46.604;13.610;2023-05-19T16:42:58;5.18;;;3.30;;
40286;SDS011;25998;46.604;13.610;2023-05-19T16:46:09;5.88;;;4.05;;
40286;SDS011;25998;46.604;13.610;2023-05-19T16:49:21;5.43;;;3.50;;
40286;SDS011;25998;46.604;13.610;2023-05-19T16:52:32;4.68;;;3.92;;
40286;SDS011;25998;46.604;13.610;2023-05-19T16:55:43;7.68;;;3.65;;
40286;SDS011;25998;46.604;13.610;2023-05-19T16:58:54;4.00;;;3.35;;
40286;SDS011;25998;46.604;13.610;2023-05-19T17:02:05;4.80;;;3.50;;
40286;SDS011;25998;46.604;13.610;2023-05-19T17:05:16;5.75;;;3.80;;
40286;SDS011;25998;46.604;13.610;2023-05-19T17:08:27;7.47;;;3.72;;
40286;SDS011;25998;46.604;13.610;2023-05-19T17:11:38;4.90;;;3.47;;
40286;SDS011;25998;46.604;13.610;2023-05-19T17:14:49;4.78;;;3.83;;
40286;SDS011;25998;46.604;13.610;2023-05-19T17:18:01;5.35;;;4.10;;
40286;SDS011;25998;46.604;13.610;2023-05-19T17:21:12;6.00;;;4.20;;
40286;SDS011;25998;46.604;13.610;2023-05-19T17:24:23;6.18;;;5.07;;
40286;SDS011;25998;46.604;13.610;2023-05-19T17:27:34;5.97;;;3.60;;
40286;SDS011;25998;46.604;13.610;2023-05-19T17:30:45;3.97;;;3.58;;
40286;SDS011;25998;46.604;13.610;2023-05-19T17:33:55;6.40;;;3.95;;
40286;SDS011;25998;46.604;13.610;2023-05-19T17:37:06;6.15;;;4.50;;
40286;SDS011;25998;46.604;13.610;2023-05-19T17:40:17;7.57;;;4.78;;
40286;SDS011;25998;46.604;13.610;2023-05-19T17:43:28;5.80;;;5.20;;
40286;SDS011;25998;46.604;13.610;2023-05-19T17:46:39;8.48;;;4.90;;
40286;SDS011;25998;46.604;13.610;2023-05-19T17:49:50;5.18;;;4.65;;
40286;SDS011;25998;46.604;13.610;2023-05-19T17:53:02;5.60;;;4.50;;
40286;SDS011;25998;46.604;13.610;2023-05-19T17:56:13;7.07;;;4.80;;
40286;SDS011;25998;46.604;13.610;2023-05-19T17:59:24;5.55;;;4.53;;
40286;SDS011;25998;46.604;13.610;2023-05-19T18:02:35;5.85;;;5.28;;
40286;SDS011;25998;46.604;13.610;2023-05-19T18:05:47;6.07;;;5.43;;
40286;SDS011;25998;46.604;13.610;2023-05-19T18:08:59;10.43;;;6.20;;
40286;SDS011;25998;46.604;13.610;2023-05-19T18:12:12;7.40;;;5.40;;
40286;SDS011;25998;46.604;13.610;2023-05-19T18:15:23;11.18;;;5.30;;
40286;SDS011;25998;46.604;13.610;2023-05-19T18:18:33;6.47;;;4.72;;
40286;SDS011;25998;46.604;13.610;2023-05-19T18:21:46;6.55;;;5.45;;
40286;SDS011;25998;46.604;13.610;2023-05-19T18:24:57;5.53;;;5.03;;
40286;SDS011;25998;46.604;13.610;2023-05-19T18:28:08;6.82;;;5.10;;
40286;SDS011;25998;46.604;13.610;2023-05-19T18:31:18;7.07;;;5.20;;
40286;SDS011;25998;46.604;13.610;2023-05-19T18:34:29;6.75;;;5.07;;
40286;SDS011;25998;46.604;13.610;2023-05-19T18:37:40;7.78;;;5.20;;
40286;SDS011;25998;46.604;13.610;2023-05-19T18:40:51;8.20;;;5.47;;
40286;SDS011;25998;46.604;13.610;2023-05-19T18:44:02;6.05;;;4.88;;
40286;SDS011;25998;46.604;13.610;2023-05-19T18:47:15;6.07;;;5.25;;
40286;SDS011;25998;46.604;13.610;2023-05-19T18:50:28;6.53;;;5.85;;
40286;SDS011;25998;46.604;13.610;2023-05-19T18:53:39;6.07;;;5.18;;
40286;SDS011;25998;46.604;13.610;2023-05-19T18:56:50;6.22;;;5.53;;
40286;SDS011;25998;46.604;13.610;2023-05-19T19:00:01;9.00;;;6.90;;
40286;SDS011;25998;46.604;13.610;2023-05-19T19:03:12;8.50;;;7.03;;
40286;SDS011;25998;46.604;13.610;2023-05-19T19:06:22;7.93;;;6.38;;
40286;SDS011;25998;46.604;13.610;2023-05-19T19:09:33;9.60;;;6.70;;
40286;SDS011;25998;46.604;13.610;2023-05-19T19:12:44;8.23;;;5.60;;
40286;SDS011;25998;46.604;13.610;2023-05-19T19:15:55;6.55;;;5.82;;
40286;SDS011;25998;46.604;13.610;2023-05-19T19:19:06;8.70;;;5.85;;
40286;SDS011;25998;46.604;13.610;2023-05-19T19:22:16;9.07;;;6.53;;
40286;SDS011;25998;46.604;13.610;2023-05-19T19:25:27;6.72;;;6.03;;
40286;SDS011;25998;46.604;13.610;2023-05-19T19:28:38;6.60;;;5.22;;
40286;SDS011;25998;46.604;13.610;2023-05-19T19:31:49;7.65;;;5.70;;
40286;SDS011;25998;46.604;13.610;2023-05-19T19:35:00;6.50;;;4.90;;